OAX weather

Xoxocotlán International Airport
Oaxaca, Oaxaca, Mexico

Public forecast

Using degrees Celsius for public forecast. Weather courtesy of forecast.io.

Current aviation weather report (METAR) for Xoxocotlán International Airport

Report is more than 2 hours old.

Retrieved 2019/10/19 01:43 UTC (2 hours ago):

MMOX 190143Z 14007KT 7SM SCT120 20/15 A3012 RMK 8/030

Aviation forecast (TAF) for Xoxocotlán International Airport

Forecast is more than 6 hours old.

Retrieved 2019/10/18 18:36 UTC (9 hours ago):

TAF MMOX 181633Z 1818/1918 16010KT P6SM BKN025 BKN250 TEMPO 1822/1901 5SM TSRA BKN020CB FM190300 04005KT P6SM SCT100 BKN200 TEMPO 1912/1916 SCT015